West Branch, New York
Current Conditions -  °F | °C
As of 2:53 PM on Wednesday 28 Jan 2015 (Local Time) from KRME Reporting Station
Clear Clear  
Wind Chill:   Ceiling: Unl
Heat Index: 21°   Visibility: 10mi
Dew Point: -1°   Wind: 13mph
Humidity: 38%   Direction: 300°WNW
Pressure: 30.22"   Gusts: NA
Location:  43.3661°N, 75.4626°W
Report Text: KRME 281953Z 30011KT 10SM CLR M06/M18 A3022 RMK AO2 UPB15E36 SLP241 P0000 T10611183
Loading
Personal Weather Stations






























Interactive Weather Map New forecast layout! Learn more

10-Day Weather Forecast

Advertisements
Track Severe Weather on mobile